West Springfield, Massachusetts
Current Conditions -  °F | °C
As of 8:53 PM on Friday 24 Oct 2014 (Local Time) from KBAF Reporting Station
Broken Clouds Broken Clouds  
Wind Chill: 50°   Ceiling: 9000
Heat Index: 50°   Visibility: 10mi
Dew Point: 42°   Wind: 7mph
Humidity: 74%   Direction: 350°N
Pressure: 29.77"   Gusts: NA
Location:  42.11°N, 72.62°W
Report Text: KBAF 250053Z 35006KT 10SM BKN090 10/06 A2977 RMK AO2 SLP085 T01000056
Loading
Personal Weather Stations






























Interactive Weather Map
Tropical Storm Tracking
New forecast layout! Learn more

10-Day Weather Forecast

Advertisements
Track Severe Weather on mobile